Decoded Metar for CYNA (NATASHQUAN in QC, CANADA) (IATA:YNA) | Meteo·Mobile Aviation Weather
aviador You're here:

CYNA Decoded Metar

NATASHQUAN in QC, CANADA
Report Time2018-10-23 00:00:00
UTC Time2018-10-23 00:37:03
Flight Rules vfr VFR
Wind270° at 11 Gusting to 18 kt
W.Decomp.*RWY 32: 9.5 kt HW 5.5 kt LCW
W.Rank270° ranks 1
Current wind is below 270° avg. (13.0)
Visibility9999 m
Phenomena:N/A
Clouds:Few 018 Hf
Overcast 065 Hf
Expected CloudBase > 1,600 ft AGL from Temp-Dew spread
Ceiling6,500 ft
Temp02°C (ISA -13)
Dew Point-2°C (75% RH)
AAT-4.2°C
QNH1008 hPa
Density Alt-1,293 ft
Elevation36 ft
Report Wrong Elevation
Raw Report
CYNA 230000Z AUTO 27011G18KT 9SM FEW018 OVC065 02/M02 A2978 RMK
SLP088=

Extra information for CYNA:More info

Metar Taf Metar & Taf Last 4 Metars F.Rules Stats Wind Profile Meteogram Temp Stats Airport Information Weather charts Add Link Nearby VenuesMetar ALERT Operation Metar Decoded Social comments